Forum - i mitici sud

tutti gli utenti del gruppo possono partecipare le discussione con riferimento a sesso o non conforme a chatta.it verranno imossi

Amministratore
F.ranco52 02/03/2019 ore 09:32 Quota

(nessuno) Nowcasting Sabato 2 Marzo 2019

Buongiorno a tutti


Notizie Meteo dell'Italia da il Meteo .It


http://ilMeteo.It


la Situazione Italiana vista dal Sat









il Radar Europeo









Brindisi

METAR LIBR 020750Z 32003KT 9000 FEW015 SCT025 12/10 Q1010=

METAR di Brindisi del 2 alle 7,50z

Vento fa 320° N NW 3 nodi (5,556 km) Visibilitą 9000 m
Copertura 1-2 ottavi da 1500 piedi (457,2 m)
Copertura 3-4 ottavi da 2500 piedi (762 m)
Te4mp 12°C Dew 10°C Ur 87% hPa 1010

Brindisi

TAF LIBR 020500Z 0206/0306 36016KT 9999 SCT030 TEMPO 0208/0212 4000 TSRA=

le TAF di Brindisi delle 5z Previsioni dalle 6z alle 6z del 3

Vento da 360° N 16 nodi (29,632 km) Visibilitą 10000 m
Copertura 3-4 ottavi da 3000 piedi (914,4 m)
il Tempo Varierą dalle 8z alle 12z
Visibilitą 4000 m , Temporali di Pioggia


Gioia del Colle

METAR LIBV 020655Z 34008KT 4500 -RA BR SCT005 SCT040 09/08 Q1009 RMK BKN VIS MIN 4500 WIND THR32 36009KT WIND THR14 34012KT GRN=

METAR di Gioia del Colle del 2 alle 6,55z

Vento da 340° N NW 8 nodi (14,816 km) Visibilitą 4500 m , Pioggia Debole , Foschia
Copertura 3-4 ottavi da 500 piedi (152,4 m)
Copertura 3-4 ottavi da 4000 piedi (1219,2 m)
Temp 9°C Dew 8°C Ur 93% hPa 1009
Nuvolositą a 5-7 ottavi
Visibilitą Minima 4500 m

Gioia del Colle

le TAF di Gioia del Colle delle 5z Previsioni dalle 6z alle 15z

DATI NON PERVENUTI
2592779
Buongiorno a tutti Notizie Meteo dell'Italia da il Meteo .It http://ilMeteo.It la Situazione Italiana vista dal Sat « immagine »...
Discussione
02/03/2019 09:32:27
none
  • mi piace
    iLikeIt
    PublicVote
    1

Vuoi partecipare anche tu a questa discussione?

Rispondi per lasciare il tuo messaggio in questa discussione